Time;durP1;ratioP1;P1;durP2;ratioP2;P2;SDS_P1;SDS_P2;PMS_P1;PMS_P2;Temp;Humidity;BMP_temperature;BMP_pressure;BME280_temperature;BME280_humidity;BME280_pressure;Samples;Min_cycle;Max_cycle;Signal;HPM_P1;HPM_P2
2022/08/19 00:01:30;;;;;;;6.10;5.50;;;20.10;99.90;;;;;;5058749;28;20455;-82
2022/08/19 00:03:58;;;;;;;6.43;5.83;;;20.00;99.90;;;;;;5058080;28;20456;-81
2022/08/19 00:06:25;;;;;;;7.20;5.80;;;20.00;99.90;;;;;;5058047;28;20443;-83
2022/08/19 00:08:52;;;;;;;8.30;4.87;;;20.00;99.90;;;;;;5058136;28;20555;-81
2022/08/19 00:11:20;;;;;;;5.60;4.90;;;19.90;99.90;;;;;;5058451;28;20511;-83
2022/08/19 00:13:48;;;;;;;6.67;5.50;;;19.90;99.90;;;;;;5056608;28;20456;-80
2022/08/19 00:16:15;;;;;;;5.60;4.90;;;19.90;99.90;;;;;;5058987;28;20851;-81
2022/08/19 00:18:43;;;;;;;5.60;5.00;;;19.90;99.90;;;;;;5057277;28;20619;-78
2022/08/19 00:21:10;;;;;;;7.27;5.50;;;19.90;99.90;;;;;;5057526;28;20538;-78
2022/08/19 00:23:37;;;;;;;5.83;5.33;;;19.90;99.90;;;;;;5056770;28;20463;-79
2022/08/19 00:26:05;;;;;;;5.10;4.60;;;19.90;99.90;;;;;;5057381;28;20460;-79
2022/08/19 00:28:32;;;;;;;5.43;4.93;;;19.90;99.90;;;;;;5057427;28;20582;-81
2022/08/19 00:30:59;;;;;;;7.27;5.53;;;19.80;99.90;;;;;;5056779;28;20452;-79
2022/08/19 00:33:27;;;;;;;7.40;5.80;;;19.80;99.90;;;;;;5055967;28;20524;-80
2022/08/19 00:35:56;;;;;;;6.10;5.50;;;19.80;99.90;;;;;;5056535;28;20527;-78
2022/08/19 00:38:23;;;;;;;6.93;5.60;;;19.80;99.90;;;;;;5056632;28;20500;-79
2022/08/19 00:40:50;;;;;;;6.83;6.13;;;19.70;99.90;;;;;;5056168;28;20466;-80
2022/08/19 00:43:21;;;;;;;6.17;5.60;;;19.70;99.90;;;;;;5055673;28;20499;-80
2022/08/19 00:45:49;;;;;;;7.83;5.20;;;19.70;99.90;;;;;;5056217;28;20440;-79
2022/08/19 00:48:16;;;;;;;7.17;5.37;;;19.70;99.90;;;;;;5056142;28;20499;-80
2022/08/19 00:50:45;;;;;;;6.27;5.60;;;19.70;99.90;;;;;;5055398;28;20509;-80
2022/08/19 00:53:17;;;;;;;6.27;5.67;;;19.70;99.90;;;;;;5053948;28;20541;-79
2022/08/19 00:55:47;;;;;;;6.37;5.77;;;19.70;99.90;;;;;;5084470;22;20581;-79
2022/08/19 00:58:17;;;;;;;6.63;5.83;;;19.70;99.90;;;;;;5074700;28;20443;-80
2022/08/19 01:00:44;;;;;;;6.73;6.03;;;19.70;99.90;;;;;;5063866;28;20484;-80
2022/08/19 01:03:14;;;;;;;6.40;5.83;;;19.70;99.90;;;;;;5072097;28;20443;-79
2022/08/19 01:05:44;;;;;;;6.53;5.93;;;19.60;99.90;;;;;;5084955;28;20539;-78
2022/08/19 01:08:15;;;;;;;6.40;5.60;;;19.60;99.90;;;;;;5074759;28;20474;-79
2022/08/19 01:10:45;;;;;;;6.50;5.47;;;19.60;99.90;;;;;;5072120;28;20455;-79
2022/08/19 01:13:15;;;;;;;7.40;6.10;;;19.50;99.90;;;;;;5069918;28;20890;-79
2022/08/19 01:15:50;;;;;;;7.13;6.43;;;19.50;99.90;;;;;;5059694;28;20570;-78
2022/08/19 01:18:19;;;;;;;6.73;6.00;;;19.50;99.90;;;;;;5071874;28;20483;-79
2022/08/19 01:20:47;;;;;;;6.87;6.17;;;19.50;99.90;;;;;;5074798;28;20451;-79
2022/08/19 01:23:16;;;;;;;7.13;6.40;;;19.50;99.90;;;;;;5073410;28;20499;-78
2022/08/19 01:25:49;;;;;;;9.50;6.27;;;19.50;99.90;;;;;;5075559;28;20554;-78
2022/08/19 01:28:19;;;;;;;7.10;6.00;;;19.50;99.90;;;;;;5078064;28;20573;-78
2022/08/19 01:30:46;;;;;;;7.00;6.30;;;19.50;99.90;;;;;;5058161;28;20527;-79
2022/08/19 01:33:14;;;;;;;6.20;5.60;;;19.40;99.90;;;;;;5073687;28;20454;-79
2022/08/19 01:35:42;;;;;;;6.47;5.87;;;19.40;99.90;;;;;;5078981;28;20550;-79
2022/08/19 01:38:19;;;;;;;6.20;5.57;;;19.40;99.90;;;;;;5078755;28;20512;-79
2022/08/19 01:40:47;;;;;;;7.17;6.47;;;19.40;99.90;;;;;;5077916;28;20482;-79
2022/08/19 01:43:14;;;;;;;8.27;6.50;;;19.40;99.90;;;;;;5076325;28;20541;-79
2022/08/19 01:45:41;;;;;;;6.63;5.97;;;19.40;99.90;;;;;;5078088;28;20501;-79
2022/08/19 01:48:09;;;;;;;6.13;5.50;;;19.30;99.90;;;;;;5077611;28;20576;-79
2022/08/19 01:50:36;;;;;;;6.83;6.13;;;19.30;99.90;;;;;;5077387;28;20542;-79
2022/08/19 01:53:07;;;;;;;6.90;6.00;;;19.30;99.90;;;;;;5076725;28;20538;-79
2022/08/19 01:55:36;;;;;;;7.50;6.80;;;19.30;99.90;;;;;;5076873;28;20488;-79
2022/08/19 01:58:06;;;;;;;7.97;7.17;;;19.30;99.90;;;;;;5076569;28;20454;-79
2022/08/19 02:00:37;;;;;;;7.90;6.90;;;19.30;99.90;;;;;;5076426;28;20557;-79
2022/08/19 02:03:03;;;;;;;6.93;6.13;;;19.30;99.90;;;;;;5075964;28;20518;-79
2022/08/19 02:05:31;;;;;;;9.13;7.23;;;19.30;99.90;;;;;;5073478;28;20487;-78
2022/08/19 02:07:58;;;;;;;7.70;7.00;;;19.30;99.90;;;;;;5058787;28;20495;-79
2022/08/19 02:10:26;;;;;;;7.33;6.50;;;19.30;99.90;;;;;;5067364;28;20538;-79
2022/08/19 02:12:53;;;;;;;7.40;6.67;;;19.20;99.90;;;;;;5076488;28;20546;-78
2022/08/19 02:15:22;;;;;;;8.23;7.37;;;19.30;99.90;;;;;;5076242;28;20552;-79
2022/08/19 02:17:49;;;;;;;8.10;6.83;;;19.20;99.90;;;;;;5077267;28;20996;-79
2022/08/19 02:20:17;;;;;;;6.90;6.20;;;19.20;99.90;;;;;;5076502;28;20530;-78
2022/08/19 02:22:44;;;;;;;8.80;6.60;;;19.20;99.90;;;;;;5076075;28;20498;-79
2022/08/19 02:25:12;;;;;;;7.70;6.83;;;19.20;99.90;;;;;;5076430;28;20454;-79
2022/08/19 02:27:39;;;;;;;7.70;6.93;;;19.20;99.90;;;;;;5076588;28;20486;-79
2022/08/19 02:30:08;;;;;;;11.63;7.50;;;19.20;99.90;;;;;;5076516;28;20465;-79
2022/08/19 02:32:37;;;;;;;9.00;7.47;;;19.20;99.90;;;;;;5077028;28;20533;-79
2022/08/19 02:35:04;;;;;;;8.53;7.63;;;19.20;99.90;;;;;;5076133;28;20886;-80
2022/08/19 02:40:17;;;;;;;9.10;7.40;;;19.20;99.90;;;;;;5077337;28;20456;-79
2022/08/19 02:42:45;;;;;;;9.10;8.27;;;19.20;99.90;;;;;;5077066;28;20463;-79
2022/08/19 02:45:13;;;;;;;9.17;8.23;;;19.20;99.90;;;;;;5076432;28;20952;-79
2022/08/19 02:47:41;;;;;;;8.33;7.30;;;19.10;99.90;;;;;;5076875;28;20577;-79
2022/08/19 02:50:09;;;;;;;8.00;7.20;;;19.10;99.90;;;;;;5076727;28;20553;-80
2022/08/19 02:52:36;;;;;;;13.30;10.30;;;19.10;99.90;;;;;;5077796;28;20542;-79
2022/08/19 02:55:04;;;;;;;9.00;8.10;;;19.00;99.90;;;;;;5076172;28;20961;-80
2022/08/19 02:57:32;;;;;;;10.27;7.77;;;19.00;99.90;;;;;;5077729;28;20911;-79
2022/08/19 02:59:59;;;;;;;9.57;8.50;;;19.00;99.90;;;;;;5076782;28;20458;-80
2022/08/19 03:02:26;;;;;;;8.57;7.70;;;19.00;99.90;;;;;;5077579;28;20548;-79
2022/08/19 03:04:55;;;;;;;10.20;9.10;;;19.00;99.90;;;;;;5083472;28;20459;-79
2022/08/19 03:07:22;;;;;;;9.87;8.97;;;19.00;99.90;;;;;;5057136;28;20550;-79
2022/08/19 03:09:48;;;;;;;8.97;8.07;;;19.00;99.90;;;;;;5073289;28;20459;-79
2022/08/19 03:12:15;;;;;;;10.73;7.70;;;19.00;99.90;;;;;;5076641;28;20641;-79
2022/08/19 03:14:42;;;;;;;11.27;8.10;;;19.00;99.90;;;;;;5075192;28;20453;-79
2022/08/19 03:17:09;;;;;;;9.67;8.47;;;19.00;99.90;;;;;;5076739;28;20484;-80
2022/08/19 03:19:36;;;;;;;10.10;8.30;;;19.00;99.90;;;;;;5076058;28;20545;-79
2022/08/19 03:22:04;;;;;;;9.63;8.73;;;19.00;99.90;;;;;;5075931;28;20451;-79
2022/08/19 03:24:32;;;;;;;11.13;8.30;;;19.00;99.90;;;;;;5075693;28;20451;-79
2022/08/19 03:26:59;;;;;;;10.57;8.33;;;19.00;99.90;;;;;;5076031;28;20978;-79
2022/08/19 03:29:27;;;;;;;9.23;8.33;;;18.90;99.90;;;;;;5076536;28;20493;-79
2022/08/19 03:31:54;;;;;;;9.50;8.53;;;18.90;99.90;;;;;;5076376;28;20575;-79
2022/08/19 03:34:26;;;;;;;9.00;8.10;;;18.90;99.90;;;;;;5074345;28;20488;-78
2022/08/19 03:36:54;;;;;;;10.77;7.90;;;18.90;99.90;;;;;;5074680;28;20481;-79
2022/08/19 03:39:23;;;;;;;8.90;8.10;;;18.90;99.90;;;;;;5073607;28;21035;-79
2022/08/19 03:41:52;;;;;;;9.13;8.33;;;18.90;99.90;;;;;;5076826;28;20475;-79
2022/08/19 03:44:21;;;;;;;9.47;8.37;;;18.90;99.90;;;;;;5075529;28;20489;-79
2022/08/19 03:46:51;;;;;;;10.50;8.23;;;18.90;99.90;;;;;;5076062;28;20520;-79
2022/08/19 03:49:20;;;;;;;10.90;8.27;;;18.90;99.90;;;;;;5075523;28;21103;-79
2022/08/19 03:51:50;;;;;;;10.30;9.20;;;18.90;99.90;;;;;;5076315;28;20454;-79
2022/08/19 03:54:20;;;;;;;10.20;9.20;;;18.90;99.90;;;;;;5075402;28;20458;-80
2022/08/19 03:56:50;;;;;;;9.97;8.97;;;18.90;99.90;;;;;;5073987;28;20479;-78
2022/08/19 03:59:25;;;;;;;10.00;9.00;;;18.90;99.90;;;;;;5075489;28;20453;-80
2022/08/19 04:01:53;;;;;;;9.87;8.87;;;18.90;99.90;;;;;;5076451;28;20591;-79
2022/08/19 04:04:21;;;;;;;10.30;9.20;;;18.90;99.90;;;;;;5074923;28;20517;-79
2022/08/19 04:06:49;;;;;;;9.30;8.40;;;18.90;99.90;;;;;;5059685;28;20477;-79
2022/08/19 04:09:16;;;;;;;9.40;8.27;;;18.80;99.90;;;;;;5071706;28;20583;-79
2022/08/19 04:11:46;;;;;;;9.40;8.17;;;18.90;99.90;;;;;;5076564;28;20481;-80
2022/08/19 04:14:18;;;;;;;9.60;8.60;;;18.80;99.90;;;;;;5076999;28;20461;-79
2022/08/19 04:16:46;;;;;;;10.57;9.33;;;18.80;99.90;;;;;;5081732;28;20478;-79
2022/08/19 04:19:14;;;;;;;10.00;9.00;;;18.80;99.90;;;;;;5081357;28;20521;-79
2022/08/19 04:21:45;;;;;;;10.40;9.40;;;18.80;99.90;;;;;;5081410;28;20454;-79
2022/08/19 04:24:12;;;;;;;9.87;8.87;;;18.80;99.90;;;;;;5075688;28;20523;-80
2022/08/19 04:26:40;;;;;;;9.77;8.83;;;18.80;99.90;;;;;;5076485;28;20578;-80
2022/08/19 04:29:11;;;;;;;10.00;9.00;;;18.80;99.90;;;;;;5076585;28;20567;-80
2022/08/19 04:31:40;;;;;;;10.20;9.10;;;18.70;99.90;;;;;;5075934;28;20464;-80
2022/08/19 04:34:11;;;;;;;9.90;9.00;;;18.70;99.90;;;;;;5083816;28;20510;-81
2022/08/19 04:36:40;;;;;;;11.40;8.50;;;18.80;99.90;;;;;;5078373;28;20470;-80
2022/08/19 04:39:10;;;;;;;11.23;9.07;;;18.70;99.90;;;;;;5075976;28;20446;-79
2022/08/19 04:44:22;;;;;;;9.30;8.43;;;18.80;99.90;;;;;;5075574;28;20434;-80
2022/08/19 04:46:51;;;;;;;9.57;8.30;;;18.80;99.90;;;;;;5076425;28;20477;-80
2022/08/19 04:49:21;;;;;;;12.03;9.50;;;18.80;99.90;;;;;;5075671;28;20486;-79
2022/08/19 04:51:49;;;;;;;12.73;8.23;;;18.90;99.90;;;;;;5075793;28;20463;-81
2022/08/19 04:54:17;;;;;;;10.03;9.03;;;18.90;99.90;;;;;;5074871;28;20454;-80
2022/08/19 04:56:44;;;;;;;9.90;8.90;;;18.90;99.90;;;;;;5074905;28;20482;-80
2022/08/19 04:59:11;;;;;;;9.70;8.60;;;19.00;99.90;;;;;;5075707;28;20943;-80
2022/08/19 05:01:38;;;;;;;9.63;8.70;;;19.00;99.90;;;;;;5080170;28;20454;-79
2022/08/19 05:04:07;;;;;;;9.97;9.03;;;19.10;99.90;;;;;;5087918;28;20451;-80
2022/08/19 05:06:35;;;;;;;10.33;9.23;;;19.10;99.90;;;;;;5065454;28;20505;-80
2022/08/19 05:09:03;;;;;;;10.10;9.10;;;19.20;99.90;;;;;;5067627;28;20483;-79
2022/08/19 05:11:32;;;;;;;9.80;8.80;;;19.20;99.90;;;;;;5077362;28;20489;-79
2022/08/19 05:13:59;;;;;;;10.27;9.17;;;19.20;99.90;;;;;;5078588;28;20488;-80
2022/08/19 05:16:27;;;;;;;13.50;9.83;;;19.30;99.90;;;;;;5080243;28;20926;-80
2022/08/19 05:24:28;;;;;;;11.27;9.83;;;19.40;99.90;;;;;;5078361;28;20504;-81
2022/08/19 05:26:57;;;;;;;11.83;9.43;;;19.40;99.90;;;;;;5079095;28;20564;-80
2022/08/19 05:29:26;;;;;;;11.10;9.97;;;19.50;99.90;;;;;;5078970;28;20562;-79
2022/08/19 05:31:54;;;;;;;11.40;10.20;;;19.50;99.90;;;;;;5079480;28;20451;-81
2022/08/19 05:34:24;;;;;;;11.00;9.57;;;19.50;99.90;;;;;;5078736;28;20530;-81
2022/08/19 05:36:56;;;;;;;10.90;9.77;;;19.50;99.90;;;;;;5079067;28;20467;-80
2022/08/19 05:39:24;;;;;;;12.03;10.57;;;19.50;99.90;;;;;;5079149;28;20893;-80
2022/08/19 05:41:54;;;;;;;9.90;8.90;;;19.60;99.90;;;;;;5078944;28;20447;-79
2022/08/19 05:44:22;;;;;;;10.30;9.30;;;19.60;99.90;;;;;;5078192;28;20538;-80
2022/08/19 05:46:52;;;;;;;13.23;10.73;;;19.60;99.90;;;;;;5078921;28;20473;-79
2022/08/19 05:49:20;;;;;;;13.50;10.20;;;19.70;99.90;;;;;;5079034;28;20475;-78
2022/08/19 05:51:48;;;;;;;12.93;10.90;;;19.70;99.90;;;;;;5078297;28;20538;-78
2022/08/19 05:54:17;;;;;;;14.70;11.90;;;19.80;99.90;;;;;;5076469;28;20553;-78
2022/08/19 05:56:47;;;;;;;16.67;12.50;;;19.80;99.90;;;;;;5078109;28;20565;-79
2022/08/19 05:59:15;;;;;;;20.03;12.97;;;19.80;99.90;;;;;;5077003;28;20504;-79
2022/08/19 06:01:44;;;;;;;14.23;12.77;;;19.90;99.90;;;;;;5078230;28;20486;-79
2022/08/19 06:04:13;;;;;;;16.50;12.87;;;20.00;99.90;;;;;;5077509;28;20811;-78
2022/08/19 06:06:40;;;;;;;16.43;13.23;;;20.10;99.90;;;;;;5077624;28;20484;-78
2022/08/19 06:09:09;;;;;;;12.67;11.47;;;20.10;99.90;;;;;;5072598;28;20631;-80
2022/08/19 06:11:41;;;;;;;13.73;12.33;;;20.20;99.90;;;;;;5057968;28;20456;-79
2022/08/19 06:14:11;;;;;;;16.97;13.87;;;20.20;99.90;;;;;;5063294;28;20523;-79
2022/08/19 06:16:40;;;;;;;16.57;12.40;;;20.20;99.90;;;;;;5075997;28;20528;-78
2022/08/19 06:19:10;;;;;;;13.50;12.10;;;20.30;99.90;;;;;;5077552;28;20917;-79
2022/08/19 06:21:39;;;;;;;15.30;13.80;;;20.40;99.90;;;;;;5078290;28;20511;-79
2022/08/19 06:24:08;;;;;;;16.63;14.73;;;20.40;99.90;;;;;;5077078;28;20951;-79
2022/08/19 06:26:36;;;;;;;19.63;13.73;;;20.30;99.90;;;;;;5077852;28;20506;-79
2022/08/19 06:29:06;;;;;;;15.03;13.53;;;20.40;99.90;;;;;;5078349;28;20590;-79
2022/08/19 06:31:34;;;;;;;16.03;14.40;;;20.50;99.90;;;;;;5077256;28;20455;-78
2022/08/19 06:34:02;;;;;;;16.30;13.73;;;20.50;99.90;;;;;;5077179;28;20453;-79
2022/08/19 06:36:33;;;;;;;16.33;13.93;;;20.60;99.90;;;;;;5078023;28;20497;-79
2022/08/19 06:39:02;;;;;;;14.70;12.70;;;20.60;99.90;;;;;;5077121;28;21262;-77
2022/08/19 06:41:30;;;;;;;17.43;14.40;;;20.70;99.90;;;;;;5075496;28;20451;-78
2022/08/19 06:43:57;;;;;;;14.90;13.33;;;20.80;99.90;;;;;;5076621;28;20466;-79
2022/08/19 06:46:26;;;;;;;12.67;11.30;;;20.80;99.90;;;;;;5075684;28;21046;-77
2022/08/19 06:48:54;;;;;;;16.20;11.80;;;20.80;99.90;;;;;;5074482;28;20475;-78
2022/08/19 06:51:23;;;;;;;13.90;12.40;;;20.90;99.90;;;;;;5075609;28;20446;-78
2022/08/19 06:53:52;;;;;;;17.63;14.30;;;21.00;99.90;;;;;;5073935;28;20467;-78
2022/08/19 06:56:24;;;;;;;18.47;16.50;;;20.90;99.90;;;;;;5074660;28;20990;-78
2022/08/19 06:58:52;;;;;;;15.57;13.90;;;20.90;99.90;;;;;;5074406;28;20508;-78
2022/08/19 07:01:20;;;;;;;16.70;14.50;;;21.00;99.90;;;;;;5080723;28;20439;-78
2022/08/19 07:03:49;;;;;;;16.47;13.40;;;21.10;99.90;;;;;;5087262;28;20462;-78
2022/08/19 07:06:19;;;;;;;17.37;14.70;;;21.20;99.90;;;;;;5074790;28;20500;-78
2022/08/19 07:08:47;;;;;;;19.40;17.40;;;21.10;99.90;;;;;;5074838;28;20450;-78
2022/08/19 07:11:18;;;;;;;15.30;13.60;;;21.10;99.90;;;;;;5068414;28;20456;-79
2022/08/19 07:13:48;;;;;;;16.63;14.83;;;21.10;99.90;;;;;;5065010;28;20469;-78
2022/08/19 07:16:19;;;;;;;20.87;15.20;;;21.20;99.90;;;;;;5065360;28;20496;-78
2022/08/19 07:18:48;;;;;;;18.90;16.90;;;21.20;99.90;;;;;;5073250;28;20458;-79
2022/08/19 07:21:18;;;;;;;21.93;18.00;;;21.20;99.90;;;;;;5064560;28;20451;-79
2022/08/19 07:23:46;;;;;;;17.23;15.10;;;21.30;99.90;;;;;;5060255;28;20546;-79
2022/08/19 07:26:15;;;;;;;19.83;16.50;;;21.40;99.90;;;;;;5073718;28;20557;-78
2022/08/19 07:28:43;;;;;;;14.20;12.70;;;21.40;99.90;;;;;;5074925;28;20447;-78
2022/08/19 07:31:11;;;;;;;17.50;14.00;;;21.50;99.90;;;;;;5074450;28;20440;-78
2022/08/19 07:33:38;;;;;;;17.40;15.37;;;21.50;99.90;;;;;;5073044;28;20542;-78
2022/08/19 07:36:10;;;;;;;20.53;15.23;;;21.40;99.90;;;;;;5073994;28;20562;-78
2022/08/19 07:38:39;;;;;;;25.17;17.10;;;21.50;99.90;;;;;;5073254;28;20485;-78
2022/08/19 07:41:06;;;;;;;15.23;13.70;;;21.50;99.90;;;;;;5073645;28;20443;-78
2022/08/19 07:43:34;;;;;;;19.97;15.17;;;21.60;99.90;;;;;;5091524;22;20552;-80
2022/08/19 07:46:00;;;;;;;15.00;13.43;;;21.60;99.90;;;;;;5023729;28;20955;-79
2022/08/19 07:48:28;;;;;;;17.23;14.90;;;21.70;99.90;;;;;;5024446;28;20450;-79
2022/08/19 07:50:57;;;;;;;21.77;15.53;;;21.90;99.90;;;;;;5031883;28;20571;-77
2022/08/19 07:53:26;;;;;;;18.03;13.47;;;21.90;99.90;;;;;;5031792;28;20532;-78
2022/08/19 07:55:53;;;;;;;15.20;13.70;;;22.00;99.90;;;;;;5031982;28;20567;-77
2022/08/19 07:58:22;;;;;;;17.53;15.60;;;21.90;99.90;;;;;;5027642;28;20461;-80
2022/08/19 08:00:51;;;;;;;20.80;16.33;;;22.00;99.90;;;;;;5029459;28;20450;-78
2022/08/19 08:09:10;;;;;;;21.37;15.07;;;22.10;99.90;;;;;;5020724;28;20561;-79
2022/08/19 08:09:12;;;;;;;17.40;14.07;;;22.30;99.90;;;;;;5027526;28;20440;-81
2022/08/19 08:11:39;;;;;;;18.17;16.27;;;22.40;99.90;;;;;;5025439;28;20971;-78
2022/08/19 08:14:06;;;;;;;17.07;14.83;;;22.40;99.90;;;;;;5025313;28;20365;-77
2022/08/19 08:16:36;;;;;;;16.37;14.70;;;22.70;99.90;;;;;;5013615;28;20984;-77
2022/08/19 08:19:06;;;;;;;20.50;16.10;;;22.80;99.90;;;;;;5030204;28;20548;-79
2022/08/19 08:21:33;;;;;;;21.37;18.17;;;22.90;99.90;;;;;;5029137;28;20503;-82
2022/08/19 08:24:01;;;;;;;18.60;16.37;;;22.80;99.90;;;;;;5030106;28;20469;-78
2022/08/19 08:26:28;;;;;;;19.07;17.07;;;23.00;99.90;;;;;;5032552;28;20544;-77
2022/08/19 08:28:56;;;;;;;20.90;18.67;;;23.00;99.90;;;;;;5032434;28;20453;-80
2022/08/19 08:31:23;;;;;;;24.90;19.53;;;23.10;99.90;;;;;;5032343;28;21001;-78
2022/08/19 08:33:50;;;;;;;23.50;20.50;;;23.10;99.90;;;;;;5031190;28;20477;-79
2022/08/19 08:36:17;;;;;;;24.77;21.23;;;23.30;99.90;;;;;;5031649;28;20555;-79
2022/08/19 08:38:46;;;;;;;27.70;21.43;;;23.40;99.90;;;;;;5032153;28;20464;-78
2022/08/19 08:41:22;;;;;;;22.60;20.17;;;23.50;99.90;;;;;;5031979;28;20448;-77
2022/08/19 08:43:51;;;;;;;24.90;19.97;;;23.70;99.90;;;;;;5031201;28;20491;-79
2022/08/19 08:46:26;;;;;;;24.17;20.33;;;23.70;99.90;;;;;;5023594;28;20459;-77
2022/08/19 08:48:58;;;;;;;19.40;17.40;;;23.80;99.90;;;;;;5013229;28;20491;-78
2022/08/19 08:51:29;;;;;;;21.43;19.33;;;23.80;99.90;;;;;;5025084;28;20559;-78
2022/08/19 08:53:57;;;;;;;26.40;23.60;;;23.80;99.90;;;;;;5031796;28;20480;-79
2022/08/19 08:56:25;;;;;;;25.00;22.23;;;23.90;99.90;;;;;;5032183;28;20531;-79
2022/08/19 08:58:57;;;;;;;22.97;20.00;;;23.90;99.90;;;;;;5033503;28;20455;-82
2022/08/19 09:01:25;;;;;;;23.90;21.50;;;24.10;99.90;;;;;;5033286;28;20480;-78
2022/08/19 09:03:52;;;;;;;26.30;23.50;;;24.30;99.90;;;;;;5031345;28;20482;-78
2022/08/19 09:06:30;;;;;;;24.87;21.10;;;24.40;99.90;;;;;;5032620;28;20463;-82
2022/08/19 09:09:04;;;;;;;26.10;23.30;;;24.70;99.90;;;;;;5032903;28;20879;-80
2022/08/19 09:11:42;;;;;;;29.73;26.63;;;24.90;99.90;;;;;;5032896;28;20492;-81
2022/08/19 09:14:20;;;;;;;29.80;26.60;;;25.10;99.90;;;;;;5030624;28;20551;-81
2022/08/19 09:16:49;;;;;;;31.17;28.07;;;25.10;99.90;;;;;;5023883;28;20448;-80
2022/08/19 09:19:17;;;;;;;23.73;21.13;;;25.30;99.90;;;;;;5028409;28;20464;-79
2022/08/19 09:21:45;;;;;;;32.00;26.07;;;25.70;99.90;;;;;;5011692;28;20556;-79
2022/08/19 09:24:12;;;;;;;33.57;30.10;;;26.00;99.90;;;;;;5018834;28;20536;-78
2022/08/19 09:26:40;;;;;;;27.97;25.07;;;25.80;99.90;;;;;;5023821;28;20491;-77
2022/08/19 09:29:07;;;;;;;29.53;26.33;;;25.60;99.90;;;;;;5032064;28;20511;-76
2022/08/19 09:31:34;;;;;;;28.73;25.83;;;25.70;99.90;;;;;;5031895;28;21079;-79
2022/08/19 09:34:03;;;;;;;27.57;24.77;;;25.50;99.90;;;;;;5028028;28;20556;-78
2022/08/19 09:36:32;;;;;;;26.83;23.03;;;25.40;99.90;;;;;;5025191;28;20835;-77
2022/08/19 09:38:59;;;;;;;27.23;17.97;;;25.50;99.90;;;;;;5028859;28;20476;-79
2022/08/19 09:41:26;;;;;;;22.23;17.23;;;25.50;99.90;;;;;;5024314;28;20527;-80
2022/08/19 09:43:56;;;;;;;17.47;15.77;;;25.50;99.90;;;;;;5028163;28;20567;-79
2022/08/19 09:46:25;;;;;;;19.17;17.17;;;25.60;99.90;;;;;;5030593;28;20452;-79
2022/08/19 09:48:53;;;;;;;21.77;19.57;;;25.50;99.90;;;;;;5034597;28;20510;-81
2022/08/19 09:51:22;;;;;;;21.87;19.73;;;25.60;99.90;;;;;;5034210;28;20492;-78
2022/08/19 09:53:50;;;;;;;18.77;16.83;;;25.90;99.90;;;;;;5031840;28;20551;-78
2022/08/19 09:56:19;;;;;;;20.67;17.53;;;26.20;99.90;;;;;;5031651;28;20484;-83
2022/08/19 09:58:47;;;;;;;17.80;16.00;;;26.20;99.90;;;;;;5035116;28;20456;-79
2022/08/19 10:01:19;;;;;;;18.30;16.50;;;25.80;99.90;;;;;;5026845;28;20553;-80
2022/08/19 10:03:50;;;;;;;26.97;22.20;;;25.80;99.90;;;;;;5024523;28;20476;-79
2022/08/19 10:06:17;;;;;;;19.57;15.70;;;25.60;99.90;;;;;;5032344;28;20460;-79
2022/08/19 10:08:44;;;;;;;18.73;16.83;;;25.50;99.90;;;;;;5026419;28;20499;-77
2022/08/19 10:11:14;;;;;;;15.03;13.23;;;25.50;99.90;;;;;;5034834;28;20488;-78
2022/08/19 10:13:41;;;;;;;16.57;14.97;;;25.50;99.90;;;;;;5032108;28;20472;-78
2022/08/19 10:16:11;;;;;;;12.83;11.40;;;25.60;99.90;;;;;;5037542;28;20488;-77
2022/08/19 10:18:43;;;;;;;15.07;13.47;;;25.60;99.90;;;;;;5034515;28;20461;-78
2022/08/19 10:21:13;;;;;;;13.00;11.80;;;25.50;99.90;;;;;;5024443;28;20818;-77
2022/08/19 10:23:43;;;;;;;15.43;12.33;;;25.80;99.90;;;;;;5035084;28;20476;-80
2022/08/19 10:26:10;;;;;;;10.70;9.47;;;26.00;99.90;;;;;;5035883;28;20464;-79
2022/08/19 10:28:38;;;;;;;11.20;10.10;;;26.20;99.90;;;;;;5034669;28;20567;-77
2022/08/19 10:31:06;;;;;;;12.77;10.27;;;26.20;99.90;;;;;;5031109;28;20575;-78
2022/08/19 10:33:34;;;;;;;9.83;8.43;;;26.50;99.90;;;;;;5027033;28;20581;-77
2022/08/19 10:36:04;;;;;;;9.80;8.80;;;27.00;99.90;;;;;;5031284;28;20476;-78
2022/08/19 10:38:31;;;;;;;8.40;7.50;;;27.60;99.90;;;;;;5032677;28;20881;-77
2022/08/19 10:40:58;;;;;;;11.47;10.30;;;27.70;99.90;;;;;;5028448;28;20999;-78
2022/08/19 10:43:25;;;;;;;13.73;12.33;;;27.70;99.90;;;;;;5035011;28;20456;-79
2022/08/19 10:45:58;;;;;;;14.10;11.70;;;27.90;99.90;;;;;;5034762;28;20531;-82
2022/08/19 10:48:26;;;;;;;11.93;10.83;;;28.20;99.90;;;;;;5034626;28;20453;-78
2022/08/19 10:53:38;;;;;;;13.43;12.07;;;28.10;99.90;;;;;;5023800;28;20455;-77
2022/08/19 10:58:50;;;;;;;9.63;8.63;;;27.60;99.90;;;;;;5020149;28;20436;-79
2022/08/19 11:01:17;;;;;;;12.33;11.27;;;27.90;99.90;;;;;;5025175;28;20464;-78
2022/08/19 11:03:44;;;;;;;17.50;16.00;;;28.00;99.90;;;;;;5035568;28;21134;-78
2022/08/19 11:06:12;;;;;;;19.50;17.57;;;27.60;99.90;;;;;;5035774;28;20457;-79
2022/08/19 11:08:41;;;;;;;17.00;15.27;;;27.70;99.90;;;;;;5034900;28;20553;-77
2022/08/19 11:11:09;;;;;;;18.70;16.80;;;28.00;99.90;;;;;;5034897;28;20587;-76
2022/08/19 11:13:38;;;;;;;17.00;15.60;;;28.10;99.90;;;;;;5034006;28;20496;-76
2022/08/19 11:16:08;;;;;;;17.70;16.10;;;28.20;99.90;;;;;;5034554;28;20520;-77
2022/08/19 11:18:37;;;;;;;17.20;15.50;;;28.40;99.90;;;;;;5035606;28;21032;-77
2022/08/19 11:21:10;;;;;;;17.20;15.60;;;28.50;99.90;;;;;;5036075;28;20891;-79
2022/08/19 11:23:36;;;;;;;17.53;15.77;;;28.60;99.90;;;;;;5033904;28;20504;-78
2022/08/19 11:26:05;;;;;;;15.43;13.93;;;28.80;99.90;;;;;;5035519;28;20448;-78
2022/08/19 11:28:32;;;;;;;20.80;17.77;;;29.10;99.90;;;;;;5035403;28;20444;-78
2022/08/19 11:30:59;;;;;;;15.80;14.30;;;29.00;99.90;;;;;;5035609;28;20504;-79
2022/08/19 11:33:26;;;;;;;15.80;14.30;;;29.10;99.90;;;;;;5035218;28;20486;-78
2022/08/19 11:35:53;;;;;;;19.03;17.30;;;29.40;99.90;;;;;;5034466;28;20460;-77
2022/08/19 11:38:20;;;;;;;18.83;17.13;;;29.80;99.90;;;;;;5034865;28;20447;-78
2022/08/19 11:40:56;;;;;;;17.13;15.60;;;29.70;99.90;;;;;;5034766;28;20532;-78
2022/08/19 11:43:26;;;;;;;15.00;13.63;;;29.80;99.90;;;;;;5032863;28;20440;-78
2022/08/19 11:45:53;;;;;;;16.43;14.90;;;30.10;99.90;;;;;;5035986;28;20484;-77
2022/08/19 11:48:21;;;;;;;14.83;13.53;;;30.30;99.90;;;;;;5034952;28;20444;-77
2022/08/19 11:50:49;;;;;;;14.53;12.80;;;30.20;99.90;;;;;;5034584;28;20484;-76
2022/08/19 11:53:16;;;;;;;14.73;13.00;;;30.40;99.90;;;;;;5033208;28;20539;-77
2022/08/19 11:55:44;;;;;;;13.07;11.83;;;30.70;99.90;;;;;;5035449;28;20536;-79
2022/08/19 11:58:11;;;;;;;15.90;14.37;;;31.00;99.90;;;;;;5036342;28;20457;-78
2022/08/19 12:00:41;;;;;;;15.30;12.90;;;31.30;99.90;;;;;;5035066;28;20441;-78
2022/08/19 12:03:08;;;;;;;14.13;12.83;;;31.30;99.90;;;;;;5033897;28;20539;-79
2022/08/19 12:05:38;;;;;;;14.93;13.43;;;31.60;99.90;;;;;;5033322;28;20496;-81
2022/08/19 12:08:05;;;;;;;17.27;14.67;;;31.40;99.90;;;;;;5034493;28;20544;-79
2022/08/19 12:10:32;;;;;;;9.90;9.00;;;31.10;99.90;;;;;;5034266;28;20492;-78
2022/08/19 12:12:59;;;;;;;12.93;11.60;;;30.50;99.90;;;;;;5033348;28;20481;-78
2022/08/19 12:15:27;;;;;;;12.00;10.90;;;30.20;99.90;;;;;;5033565;28;20572;-82
2022/08/19 12:17:56;;;;;;;15.47;14.00;;;30.10;99.90;;;;;;5035924;28;20461;-78
2022/08/19 12:20:24;;;;;;;11.63;10.53;;;30.20;99.90;;;;;;5035918;28;20839;-77
2022/08/19 12:22:51;;;;;;;12.10;11.00;;;30.20;99.90;;;;;;5035549;28;20544;-78
2022/08/19 12:25:18;;;;;;;10.20;9.20;;;30.30;99.90;;;;;;5035542;28;20911;-76
2022/08/19 12:27:46;;;;;;;10.90;9.90;;;30.50;99.90;;;;;;5035155;28;20499;-77
2022/08/19 12:30:14;;;;;;;12.03;10.83;;;30.20;99.90;;;;;;5034620;28;20555;-77
2022/08/19 12:32:41;;;;;;;10.30;9.20;;;29.80;99.90;;;;;;5033595;28;20484;-78
2022/08/19 12:35:11;;;;;;;11.10;10.00;;;29.50;99.90;;;;;;5033859;28;20456;-77
2022/08/19 12:37:38;;;;;;;9.03;7.67;;;29.20;99.90;;;;;;5033714;28;20523;-77
2022/08/19 12:40:06;;;;;;;10.13;8.63;;;29.30;99.90;;;;;;5033235;28;20453;-78
2022/08/19 12:42:34;;;;;;;8.63;7.83;;;29.30;99.90;;;;;;5033677;28;20459;-77
2022/08/19 12:45:01;;;;;;;10.23;8.03;;;29.60;99.90;;;;;;5032799;28;20480;-80
2022/08/19 12:47:28;;;;;;;9.93;8.73;;;30.10;99.90;;;;;;5034243;28;20560;-77
2022/08/19 12:49:56;;;;;;;8.97;8.10;;;30.60;99.90;;;;;;5032300;28;20456;-79
2022/08/19 12:52:26;;;;;;;9.33;7.60;;;31.10;99.90;;;;;;5031876;28;21083;-78
2022/08/19 12:54:55;;;;;;;8.00;6.77;;;30.80;99.90;;;;;;5031087;28;20477;-79
2022/08/19 12:57:23;;;;;;;7.77;6.90;;;30.30;99.90;;;;;;5032178;28;20448;-81
2022/08/19 12:59:53;;;;;;;9.27;6.67;;;30.00;99.90;;;;;;5032688;28;20889;-81
2022/08/19 13:02:22;;;;;;;10.43;6.50;;;30.10;99.90;;;;;;5032642;28;20451;-78